Time;durP1;ratioP1;P1;durP2;ratioP2;P2;SDS_P1;SDS_P2;PMS_P1;PMS_P2;Temp;Humidity;BMP_temperature;BMP_pressure;BME280_temperature;BME280_humidity;BME280_pressure;Samples;Min_cycle;Max_cycle;Signal;HPM_P1;HPM_P2
2023/06/30 00:03:29;;;;;;;35.20;9.30;;;;;;;19.17;66.25;98711.88;223698;181;138636;-70
2023/06/30 00:13:14;;;;;;;20.60;8.00;;;;;;;19.04;66.70;98706.68;221849;193;666147;-66
2023/06/30 00:18:17;;;;;;;20.00;7.70;;;;;;;18.97;66.83;98702.73;223669;183;139726;-64
2023/06/30 01:13:13;;;;;;;9.40;7.00;;;;;;;18.84;66.66;98662.22;220433;192;665827;-68
2023/06/30 01:18:21;;;;;;;9.30;6.60;;;;;;;18.87;66.48;98658.98;223631;184;136403;-67
2023/06/30 01:23:37;;;;;;;14.80;7.30;;;;;;;18.91;66.56;98654.65;223721;183;143221;-66
2023/06/30 01:28:41;;;;;;;10.60;7.20;;;;;;;18.90;66.62;98656.29;223683;183;138118;-66
2023/06/30 01:33:45;;;;;;;9.90;7.10;;;;;;;18.87;66.79;98654.14;223784;179;136264;-65
2023/06/30 01:38:48;;;;;;;11.30;7.00;;;;;;;18.77;67.01;98656.09;223730;183;143521;-66
2023/06/30 01:43:52;;;;;;;8.90;6.50;;;;;;;18.69;66.65;98656.66;223738;183;138519;-67
2023/06/30 01:48:56;;;;;;;13.40;5.70;;;;;;;18.68;66.18;98650.63;223777;182;136995;-66
2023/06/30 01:54:00;;;;;;;8.30;5.60;;;;;;;18.68;65.62;98651.20;223762;182;143445;-65
2023/06/30 01:59:04;;;;;;;11.60;5.20;;;;;;;18.67;65.66;98652.77;223809;182;138761;-67
2023/06/30 02:04:09;;;;;;;12.20;5.60;;;;;;;18.69;65.85;98659.77;223753;180;137379;-68
2023/06/30 02:09:12;;;;;;;19.60;7.70;;;;;;;18.64;66.29;98658.22;223718;180;145022;-66
2023/06/30 02:14:16;;;;;;;8.30;6.00;;;;;;;18.60;66.36;98657.61;223739;180;138905;-65
2023/06/30 02:19:20;;;;;;;14.10;6.60;;;;;;;18.60;66.14;98654.54;223774;181;137790;-67
2023/06/30 02:24:24;;;;;;;15.90;6.90;;;;;;;18.58;66.26;98645.79;223759;181;145569;-66
2023/06/30 02:29:27;;;;;;;13.40;6.80;;;;;;;18.47;66.55;98643.85;223701;181;139849;-66
2023/06/30 02:34:30;;;;;;;16.00;6.50;;;;;;;18.34;66.64;98647.98;223807;181;136632;-70
2023/06/30 02:42:21;;;;;;;22.50;6.30;;;;;;;18.17;67.25;98643.80;221972;193;676631;-68
2023/06/30 02:47:25;;;;;;;13.70;6.50;;;;;;;18.04;67.56;98652.98;223649;183;136664;-67
2023/06/30 02:52:28;;;;;;;15.60;6.20;;;;;;;18.02;67.82;98655.48;223611;184;144312;-69
2023/06/30 02:57:32;;;;;;;14.90;6.50;;;;;;;18.02;67.90;98655.36;223657;183;138527;-69
2023/06/30 03:02:36;;;;;;;18.10;6.50;;;;;;;17.99;67.98;98658.29;223551;183;137070;-69
2023/06/30 03:07:41;;;;;;;12.20;7.20;;;;;;;17.96;67.99;98659.16;223666;183;144024;-68
2023/06/30 03:12:45;;;;;;;10.10;6.30;;;;;;;17.97;68.11;98656.86;223702;182;138850;-67
2023/06/30 03:17:49;;;;;;;10.70;7.00;;;;;;;18.05;67.92;98654.80;223735;181;139560;-65
2023/06/30 03:22:54;;;;;;;17.50;6.60;;;;;;;18.12;67.90;98658.11;223807;182;143585;-65
2023/06/30 03:27:57;;;;;;;19.30;6.90;;;;;;;18.10;67.99;98655.23;223748;181;138829;-64
2023/06/30 03:33:00;;;;;;;12.70;7.20;;;;;;;18.05;68.27;98649.50;223657;181;137764;-65
2023/06/30 03:38:04;;;;;;;10.20;6.50;;;;;;;18.11;68.35;98645.33;223802;182;145084;-63
2023/06/30 03:43:10;;;;;;;14.10;7.40;;;;;;;18.23;68.18;98645.90;223733;182;139172;-67
2023/06/30 03:48:14;;;;;;;15.70;7.40;;;;;;;18.31;68.27;98642.39;223766;182;136757;-66
2023/06/30 03:53:18;;;;;;;16.90;7.10;;;;;;;18.28;68.37;98641.20;223695;181;146861;-64
2023/06/30 03:58:21;;;;;;;16.10;7.90;;;;;;;18.27;68.72;98648.01;223824;181;138879;-65
2023/06/30 04:03:25;;;;;;;15.40;7.40;;;;;;;18.33;68.63;98642.88;223651;182;136748;-64
2023/06/30 04:08:30;;;;;;;16.00;7.40;;;;;;;18.42;68.50;98638.92;223726;182;145205;-65
2023/06/30 04:13:33;;;;;;;11.20;6.80;;;;;;;18.53;68.32;98639.25;223688;182;138754;-66
2023/06/30 04:18:37;;;;;;;9.90;6.80;;;;;;;18.71;67.89;98639.58;223779;182;137332;-67
2023/06/30 04:23:41;;;;;;;13.40;6.80;;;;;;;18.91;67.43;98637.37;223573;181;145523;-65
2023/06/30 04:28:45;;;;;;;10.70;6.60;;;;;;;19.06;66.73;98633.61;223752;181;138423;-63
2023/06/30 04:33:49;;;;;;;16.80;7.20;;;;;;;19.18;66.21;98630.94;223795;182;137240;-73
2023/06/30 04:38:52;;;;;;;9.60;6.30;;;;;;;19.30;66.00;98622.58;223729;182;145191;-64
2023/06/30 04:43:56;;;;;;;11.20;6.40;;;;;;;19.43;66.23;98626.93;223748;182;138931;-68
2023/06/30 04:49:00;;;;;;;12.30;6.40;;;;;;;19.54;65.73;98628.92;223798;181;137053;-66
2023/06/30 04:54:04;;;;;;;28.00;21.50;;;;;;;19.72;65.34;98624.44;223704;181;145234;-68
2023/06/30 04:59:07;;;;;;;10.60;6.20;;;;;;;19.90;64.76;98628.25;223750;181;138952;-67
2023/06/30 05:04:10;;;;;;;136.80;98.50;;;;;;;20.03;63.94;98623.95;223585;182;140503;-67
2023/06/30 05:09:13;;;;;;;18.30;9.90;;;;;;;20.11;63.13;98623.16;223739;181;145380;-66
2023/06/30 05:14:17;;;;;;;7.50;5.90;;;;;;;20.14;62.45;98624.98;223681;181;139124;-67
2023/06/30 05:19:20;;;;;;;9.60;5.90;;;;;;;20.17;62.22;98619.63;223746;181;136856;-67
2023/06/30 05:24:24;;;;;;;10.90;6.30;;;;;;;20.20;62.17;98617.48;223713;181;147218;-67
2023/06/30 05:29:33;;;;;;;13.40;8.90;;;;;;;20.33;62.95;98615.52;223721;181;139004;-62
2023/06/30 05:34:36;;;;;;;9.70;7.40;;;;;;;20.58;62.96;98614.19;223822;181;137168;-66
2023/06/30 05:39:40;;;;;;;62.70;49.20;;;;;;;20.79;62.08;98616.20;223770;183;145936;-65
2023/06/30 05:44:43;;;;;;;15.00;7.60;;;;;;;20.89;60.78;98617.23;223755;182;138679;-65
2023/06/30 05:49:46;;;;;;;8.90;5.40;;;;;;;20.98;61.13;98615.66;223763;182;136934;-65
2023/06/30 05:54:50;;;;;;;7.50;5.00;;;;;;;21.07;59.94;98617.81;223788;182;145235;-64
2023/06/30 05:59:53;;;;;;;9.80;5.00;;;;;;;21.13;59.26;98610.23;223766;182;138873;-69
2023/06/30 06:04:57;;;;;;;9.30;4.90;;;;;;;21.16;58.69;98608.08;223695;181;137062;-67
2023/06/30 06:13:33;;;;;;;6.50;4.80;;;;;;;21.27;58.37;98612.27;221210;192;667689;-67
2023/06/30 06:18:36;;;;;;;6.70;4.40;;;;;;;21.30;58.43;98611.02;223662;182;136247;-68
2023/06/30 06:23:39;;;;;;;6.20;4.50;;;;;;;21.37;57.90;98606.20;223799;182;143406;-66
2023/06/30 06:28:43;;;;;;;6.20;4.30;;;;;;;21.46;57.68;98606.48;223722;182;139446;-65
2023/06/30 06:33:46;;;;;;;6.90;4.30;;;;;;;21.56;57.18;98606.79;223791;182;136234;-63
2023/06/30 06:38:49;;;;;;;8.70;4.00;;;;;;;21.62;56.82;98603.40;223723;182;143958;-66
2023/06/30 06:43:52;;;;;;;19.40;12.70;;;;;;;21.68;56.29;98600.75;223725;182;140249;-68
2023/06/30 06:48:55;;;;;;;7.40;4.40;;;;;;;21.77;56.27;98603.17;223806;182;136975;-66
2023/06/30 06:53:59;;;;;;;6.70;4.50;;;;;;;21.88;56.00;98601.55;223674;178;143438;-65
2023/06/30 06:59:02;;;;;;;5.90;3.80;;;;;;;21.97;55.77;98596.25;223776;182;140095;-64
2023/06/30 07:04:06;;;;;;;7.00;3.50;;;;;;;22.09;54.82;98596.55;223652;182;137764;-65
2023/06/30 07:09:09;;;;;;;5.20;3.20;;;;;;;22.16;53.83;98597.74;223650;182;145746;-66
2023/06/30 07:14:12;;;;;;;8.70;3.90;;;;;;;22.22;53.11;98593.40;223701;182;138743;-67
2023/06/30 07:19:15;;;;;;;4.30;3.50;;;;;;;22.30;53.40;98588.16;223709;182;136019;-65
2023/06/30 07:24:18;;;;;;;6.00;3.70;;;;;;;22.38;53.30;98585.14;223665;183;145313;-66
2023/06/30 07:29:22;;;;;;;4.60;3.30;;;;;;;22.49;52.79;98585.04;223661;183;139558;-67
2023/06/30 07:34:25;;;;;;;6.90;3.10;;;;;;;22.60;51.95;98589.27;223764;183;138415;-67
2023/06/30 07:39:33;;;;;;;130.90;116.70;;;;;;;22.72;51.13;98580.58;223677;183;147471;-68
2023/06/30 07:44:37;;;;;;;7.50;6.10;;;;;;;22.83;50.91;98569.24;223593;182;138346;-68
2023/06/30 07:49:41;;;;;;;5.20;2.90;;;;;;;22.98;49.98;98566.36;223602;183;139889;-67
2023/06/30 07:54:46;;;;;;;5.60;2.60;;;;;;;23.09;49.30;98556.02;223602;183;144937;-68
2023/06/30 07:59:49;;;;;;;5.90;2.50;;;;;;;23.19;48.78;98551.38;223669;183;140818;-67
2023/06/30 08:04:53;;;;;;;6.00;2.70;;;;;;;23.29;47.98;98548.84;223678;183;137011;-65
2023/06/30 08:09:56;;;;;;;3.70;2.70;;;;;;;23.39;47.95;98548.88;223621;182;145015;-67
2023/06/30 08:14:59;;;;;;;8.30;2.80;;;;;;;23.46;47.98;98544.25;223555;182;139050;-68
2023/06/30 08:20:03;;;;;;;7.30;3.20;;;;;;;23.55;48.27;98538.30;223582;182;136468;-67
2023/06/30 08:25:07;;;;;;;6.50;3.70;;;;;;;23.65;47.92;98535.42;223558;182;147023;-67
2023/06/30 08:30:10;;;;;;;6.60;3.30;;;;;;;23.73;47.62;98538.92;223594;183;138271;-67
2023/06/30 08:35:14;;;;;;;6.30;2.90;;;;;;;23.81;47.58;98539.97;223744;179;136860;-67
2023/06/30 08:40:29;;;;;;;11.50;8.00;;;;;;;23.89;48.04;98540.44;223639;183;145275;-66
2023/06/30 08:45:32;;;;;;;8.00;3.50;;;;;;;24.01;47.67;98532.33;223636;182;138568;-67
2023/06/30 08:50:37;;;;;;;3.70;2.70;;;;;;;24.10;46.90;98527.39;223701;182;136345;-64
2023/06/30 08:55:41;;;;;;;6.30;2.30;;;;;;;24.20;45.83;98531.08;223564;183;145749;-65
2023/06/30 09:00:45;;;;;;;6.00;2.30;;;;;;;24.29;45.56;98517.36;223723;182;138506;-65
2023/06/30 09:05:55;;;;;;;4.50;2.20;;;;;;;24.46;45.47;98520.88;223684;182;137400;-66
2023/06/30 09:10:59;;;;;;;5.10;2.30;;;;;;;24.58;45.13;98511.35;223674;182;145774;-64
2023/06/30 09:16:08;;;;;;;3.80;2.20;;;;;;;24.71;45.20;98503.86;223700;183;138157;-67
2023/06/30 09:21:12;;;;;;;5.90;2.30;;;;;;;24.80;44.17;98500.91;223630;183;136596;-66
2023/06/30 09:26:16;;;;;;;8.20;3.10;;;;;;;24.88;43.50;98504.17;223690;183;146727;-67
2023/06/30 09:31:29;;;;;;;5.30;2.10;;;;;;;24.99;43.08;98502.08;223388;182;138399;-64
2023/06/30 09:36:48;;;;;;;5.30;1.90;;;;;;;25.10;42.52;98489.16;223642;183;137048;-67
2023/06/30 09:41:52;;;;;;;4.80;2.20;;;;;;;25.28;43.02;98492.17;223361;183;145716;-64
2023/06/30 09:46:55;;;;;;;3.60;2.10;;;;;;;25.34;41.91;98496.41;223623;182;138381;-65
2023/06/30 09:52:05;;;;;;;5.20;2.00;;;;;;;25.44;41.76;98492.09;223733;183;136685;-65
2023/06/30 09:57:08;;;;;;;3.10;2.00;;;;;;;25.60;41.29;98489.30;223632;182;145274;-64
2023/06/30 10:02:13;;;;;;;8.80;5.20;;;;;;;25.77;40.02;98481.58;223677;183;140679;-67
2023/06/30 10:07:18;;;;;;;5.50;2.30;;;;;;;25.82;39.36;98476.83;223648;183;136895;-65
2023/06/30 10:12:21;;;;;;;3.20;1.80;;;;;;;25.99;39.42;98470.86;223683;182;146844;-66
2023/06/30 10:17:26;;;;;;;3.50;1.90;;;;;;;26.13;39.31;98467.98;223710;183;138186;-66
2023/06/30 10:22:29;;;;;;;4.20;1.90;;;;;;;26.20;38.68;98463.70;223709;182;136705;-64
2023/06/30 10:27:35;;;;;;;3.70;1.90;;;;;;;26.33;38.40;98461.52;223696;183;145322;-63
2023/06/30 11:15:43;;;;;;;6.30;2.00;;;;;;;27.36;37.74;98426.48;221114;194;666964;-66
2023/06/30 11:21:00;;;;;;;3.60;2.80;;;;;;;27.34;36.54;98429.51;223547;183;138442;-66
2023/06/30 11:26:12;;;;;;;201.00;142.40;;;;;;;27.22;36.36;98418.55;223690;183;143697;-63
2023/06/30 11:31:17;;;;;;;6.50;4.30;;;;;;;27.08;37.03;98420.52;223639;183;138529;-64
2023/06/30 11:36:21;;;;;;;3.30;2.20;;;;;;;27.08;37.10;98422.79;223673;183;137549;-64
2023/06/30 11:41:24;;;;;;;4.10;1.60;;;;;;;27.14;36.62;98421.70;223230;183;144580;-64
2023/06/30 11:46:35;;;;;;;4.20;1.60;;;;;;;27.21;36.01;98416.63;223649;183;138478;-64
2023/06/30 11:51:39;;;;;;;4.50;2.60;;;;;;;27.28;35.40;98411.00;223522;183;136491;-66
2023/06/30 11:56:45;;;;;;;4.00;2.10;;;;;;;27.41;35.75;98407.23;223688;183;143686;-64
2023/06/30 12:02:03;;;;;;;3.60;1.90;;;;;;;27.52;35.69;98411.63;223613;183;139011;-65
2023/06/30 12:07:07;;;;;;;103.40;90.00;;;;;;;27.52;35.78;98405.84;223733;183;137123;-64
2023/06/30 12:12:10;;;;;;;6.10;4.70;;;;;;;27.55;35.68;98409.29;223665;183;145954;-66
2023/06/30 12:17:17;;;;;;;3.30;1.90;;;;;;;27.59;36.03;98409.90;223639;183;138407;-63
2023/06/30 12:22:29;;;;;;;2.90;1.70;;;;;;;27.62;35.74;98409.09;223696;183;137065;-65
2023/06/30 12:27:33;;;;;;;2.30;1.60;;;;;;;27.68;34.97;98400.23;223777;182;145983;-63
2023/06/30 12:32:37;;;;;;;4.60;1.80;;;;;;;27.80;34.80;98399.73;223763;181;138549;-66
2023/06/30 12:37:44;;;;;;;2.90;1.80;;;;;;;27.77;35.03;98396.77;223452;181;137027;-66
2023/06/30 12:42:47;;;;;;;46.60;41.40;;;;;;;27.72;35.56;98395.92;223724;182;145182;-64
2023/06/30 12:47:51;;;;;;;3.50;2.90;;;;;;;27.79;35.45;98396.89;223698;182;138359;-67
2023/06/30 12:52:56;;;;;;;3.00;1.90;;;;;;;27.77;34.99;98390.70;223784;182;136102;-66
2023/06/30 12:57:59;;;;;;;6.40;4.10;;;;;;;27.73;35.14;98386.88;223726;181;145352;-69
2023/06/30 13:03:03;;;;;;;5.00;2.20;;;;;;;27.76;35.15;98382.88;223737;182;139398;-64
2023/06/30 13:08:07;;;;;;;5.70;2.90;;;;;;;27.93;35.46;98368.95;223785;182;136553;-66
2023/06/30 13:13:11;;;;;;;2.60;1.90;;;;;;;28.19;34.67;98365.61;223527;182;146391;-66
2023/06/30 13:18:17;;;;;;;6.00;2.40;;;;;;;28.20;34.63;98359.58;223679;182;138930;-66
2023/06/30 13:23:24;;;;;;;8.50;2.00;;;;;;;28.21;34.78;98356.08;223694;182;137400;-66
2023/06/30 13:28:40;;;;;;;3.90;2.20;;;;;;;28.20;34.30;98350.41;223655;182;145735;-66
2023/06/30 13:33:43;;;;;;;13.90;10.40;;;;;;;28.21;34.49;98346.77;223397;181;138292;-66
2023/06/30 13:38:46;;;;;;;9.50;2.70;;;;;;;28.25;34.46;98341.04;223721;182;136910;-64
2023/06/30 13:43:50;;;;;;;3.20;1.80;;;;;;;28.38;33.58;98334.19;223706;182;146184;-64
2023/06/30 13:48:53;;;;;;;5.40;3.10;;;;;;;28.53;33.40;98324.55;223555;182;138117;-65
2023/06/30 13:53:56;;;;;;;4.50;2.30;;;;;;;28.63;33.52;98318.16;223671;182;137612;-63
2023/06/30 13:59:00;;;;;;;2.80;2.20;;;;;;;28.72;34.17;98313.79;223629;181;146614;-65
2023/06/30 14:04:03;;;;;;;19.90;13.60;;;;;;;28.85;33.43;98313.13;223610;182;141498;-65
2023/06/30 14:09:09;;;;;;;4.30;2.00;;;;;;;28.96;33.31;98307.30;223568;182;137668;-65
2023/06/30 14:14:13;;;;;;;5.20;4.30;;;;;;;29.10;32.75;98297.46;223562;182;145101;-66
2023/06/30 14:19:19;;;;;;;7.90;4.90;;;;;;;29.15;33.35;98295.73;223627;182;139159;-65
2023/06/30 14:24:24;;;;;;;9.10;6.20;;;;;;;29.09;33.71;98289.39;223557;182;137535;-64
2023/06/30 14:29:28;;;;;;;7.30;3.20;;;;;;;29.04;33.84;98280.79;223674;183;145859;-62
2023/06/30 14:34:31;;;;;;;5.00;2.80;;;;;;;29.10;33.45;98276.48;224005;193;138546;-63
2023/06/30 14:39:34;;;;;;;4.90;1.80;;;;;;;29.22;33.29;98271.58;223224;182;137134;-63
2023/06/30 14:44:38;;;;;;;4.80;1.80;;;;;;;29.21;31.99;98270.23;223992;183;145699;-65
2023/06/30 14:49:41;;;;;;;4.10;1.70;;;;;;;29.06;31.94;98268.09;223897;181;139147;-64
2023/06/30 14:54:44;;;;;;;58.70;49.70;;;;;;;28.87;32.41;98269.23;223913;182;136548;-62
2023/06/30 14:59:47;;;;;;;5.20;3.20;;;;;;;28.71;32.59;98265.29;223952;183;145793;-65
2023/06/30 15:04:51;;;;;;;4.50;2.10;;;;;;;28.57;33.34;98271.06;223917;216;138486;-66
2023/06/30 15:09:54;;;;;;;2.80;1.60;;;;;;;28.43;33.26;98269.30;223952;183;136003;-62
2023/06/30 15:14:57;;;;;;;225.20;197.20;;;;;;;28.34;33.79;98261.89;224025;182;145130;-63
2023/06/30 15:20:01;;;;;;;5.10;3.70;;;;;;;28.24;34.12;98260.13;224063;182;138432;-67
2023/06/30 15:25:04;;;;;;;4.10;1.90;;;;;;;28.13;34.23;98258.02;224057;182;136455;-64
2023/06/30 15:30:08;;;;;;;3.10;1.90;;;;;;;28.07;34.70;98257.21;223964;182;145776;-64
2023/06/30 15:35:11;;;;;;;5.80;1.90;;;;;;;28.02;34.48;98255.03;224021;182;138383;-66
2023/06/30 15:40:15;;;;;;;4.00;2.00;;;;;;;27.97;34.82;98249.73;224125;216;128917;-64
2023/06/30 15:45:19;;;;;;;12.20;10.90;;;;;;;27.96;34.97;98243.95;223979;182;145632;-63
2023/06/30 15:50:23;;;;;;;4.00;3.00;;;;;;;27.94;35.29;98234.20;223980;182;138870;-65
2023/06/30 15:55:26;;;;;;;4.70;3.20;;;;;;;27.88;35.26;98224.34;224022;193;136209;-65
2023/06/30 16:00:29;;;;;;;4.60;2.50;;;;;;;27.83;35.85;98223.38;224130;183;145091;-64
2023/06/30 16:05:32;;;;;;;7.60;6.30;;;;;;;27.78;35.96;98219.88;224017;193;138776;-66
2023/06/30 16:13:15;;;;;;;3.70;2.60;;;;;;;27.74;35.75;98212.80;221863;203;666015;-65
2023/06/30 16:18:18;;;;;;;4.10;3.20;;;;;;;27.70;35.85;98213.46;223867;186;127975;-64
2023/06/30 16:23:22;;;;;;;4.40;2.10;;;;;;;27.69;36.31;98211.58;224049;216;144598;-66
2023/06/30 16:28:25;;;;;;;111.60;100.20;;;;;;;27.65;36.08;98207.89;224033;205;138305;-66
2023/06/30 16:33:28;;;;;;;9.60;6.10;;;;;;;27.57;36.42;98206.06;223978;216;128137;-66
2023/06/30 16:38:32;;;;;;;5.80;2.30;;;;;;;27.50;36.40;98203.48;224018;192;143927;-66
2023/06/30 16:43:35;;;;;;;4.40;2.70;;;;;;;27.40;36.73;98200.11;224080;183;138576;-67
2023/06/30 16:48:39;;;;;;;6.80;2.50;;;;;;;27.32;37.11;98198.55;223930;193;128640;-70
2023/06/30 16:53:42;;;;;;;3.70;2.60;;;;;;;27.27;37.17;98195.75;223933;216;143885;-67
2023/06/30 16:58:45;;;;;;;3.50;2.10;;;;;;;27.22;37.51;98193.45;223864;216;138314;-68
2023/06/30 17:03:48;;;;;;;9.40;3.80;;;;;;;27.18;37.78;98192.67;223842;216;129307;-64
2023/06/30 17:14:30;;;;;;;6.00;2.60;;;;;;;27.08;38.61;98191.77;222003;226;666153;-64
2023/06/30 17:19:33;;;;;;;4.50;2.60;;;;;;;27.00;38.74;98192.05;224053;217;128138;-64
2023/06/30 17:24:36;;;;;;;110.70;96.50;;;;;;;26.95;39.13;98191.87;224059;217;143457;-63
2023/06/30 17:29:40;;;;;;;17.40;13.50;;;;;;;26.93;39.45;98194.24;224065;205;138147;-64
2023/06/30 17:34:43;;;;;;;4.10;3.20;;;;;;;26.89;39.89;98191.33;224070;204;127292;-63
2023/06/30 17:39:46;;;;;;;5.50;2.90;;;;;;;26.83;39.94;98190.73;224060;216;145497;-64
2023/06/30 17:44:50;;;;;;;4.70;2.80;;;;;;;26.75;39.98;98189.36;223995;204;138303;-64
2023/06/30 17:49:53;;;;;;;5.10;3.10;;;;;;;26.70;40.14;98191.38;224084;208;127879;-66
2023/06/30 17:54:56;;;;;;;7.00;3.20;;;;;;;26.66;40.46;98192.41;224125;208;143773;-64
2023/06/30 17:59:59;;;;;;;6.80;2.90;;;;;;;26.64;40.95;98196.20;224073;216;139081;-65
2023/06/30 18:05:03;;;;;;;6.50;3.60;;;;;;;26.58;41.58;98194.98;224004;216;130916;-66
2023/06/30 18:10:10;;;;;;;78.80;70.20;;;;;;;26.55;41.68;98199.65;224069;216;144964;-64
2023/06/30 18:15:14;;;;;;;24.70;19.80;;;;;;;26.53;41.97;98202.89;223992;216;139181;-63
2023/06/30 18:20:17;;;;;;;5.80;4.90;;;;;;;26.52;41.93;98205.04;224040;216;128956;-64
2023/06/30 18:25:21;;;;;;;314.00;273.80;;;;;;;26.51;42.23;98201.18;224043;205;145787;-63
2023/06/30 18:30:24;;;;;;;28.60;20.90;;;;;;;26.51;42.32;98203.39;224015;208;138871;-65
2023/06/30 18:35:28;;;;;;;19.10;13.60;;;;;;;26.49;42.69;98207.31;224026;191;129126;-64
2023/06/30 18:40:31;;;;;;;14.60;8.30;;;;;;;26.44;42.43;98212.32;223971;215;145167;-64
2023/06/30 18:45:35;;;;;;;11.50;8.50;;;;;;;26.41;42.63;98222.52;224046;208;138288;-66
2023/06/30 18:50:39;;;;;;;161.20;138.10;;;;;;;26.34;43.52;98222.63;224082;204;129192;-64
2023/06/30 18:55:42;;;;;;;71.80;51.70;;;;;;;26.27;43.74;98231.83;224040;204;145447;-63
2023/06/30 19:00:46;;;;;;;14.20;10.20;;;;;;;26.19;44.34;98232.35;224013;215;138322;-65
2023/06/30 19:05:58;;;;;;;8.20;4.10;;;;;;;26.11;44.67;98236.86;223971;215;129060;-64
2023/06/30 19:11:04;;;;;;;5.80;3.30;;;;;;;26.04;45.66;98236.05;224076;208;145726;-65
2023/06/30 19:16:07;;;;;;;9.20;4.20;;;;;;;25.92;45.72;98236.79;223931;192;138406;-65
2023/06/30 19:21:11;;;;;;;12.80;7.00;;;;;;;25.83;45.77;98236.27;224101;204;130124;-65
2023/06/30 19:26:14;;;;;;;13.00;8.30;;;;;;;25.74;46.29;98238.98;224105;208;145164;-65
2023/06/30 19:31:20;;;;;;;17.60;8.70;;;;;;;25.65;47.03;98246.16;224071;215;139062;-64
2023/06/30 19:36:25;;;;;;;16.60;7.50;;;;;;;25.56;48.39;98247.97;224032;215;129526;-64
2023/06/30 19:41:28;;;;;;;18.10;6.80;;;;;;;25.47;49.58;98242.61;224053;203;145253;-63
2023/06/30 19:46:33;;;;;;;24.50;6.00;;;;;;;25.41;50.77;98242.23;223997;207;138365;-64
2023/06/30 19:51:37;;;;;;;21.70;5.70;;;;;;;25.34;51.44;98236.27;224106;203;131307;-65
2023/06/30 19:56:41;;;;;;;17.50;5.90;;;;;;;25.25;52.18;98235.45;224040;215;145306;-64
2023/06/30 20:01:44;;;;;;;15.20;5.50;;;;;;;25.15;52.72;98238.15;223947;208;139625;-64
2023/06/30 20:06:47;;;;;;;15.20;5.50;;;;;;;25.06;53.14;98242.30;224075;204;128956;-65
2023/06/30 20:17:28;;;;;;;12.00;5.70;;;;;;;24.90;54.09;98247.02;222015;219;677032;-66
2023/06/30 20:22:31;;;;;;;15.10;6.00;;;;;;;24.79;54.50;98246.19;223983;193;128129;-66
2023/06/30 20:27:35;;;;;;;13.80;5.70;;;;;;;24.71;54.86;98248.94;223993;215;145183;-66
2023/06/30 20:32:39;;;;;;;12.10;6.20;;;;;;;24.62;55.33;98250.99;224033;215;139076;-65
2023/06/30 20:37:43;;;;;;;11.90;7.30;;;;;;;24.57;55.65;98248.98;223974;212;128615;-69
2023/06/30 20:42:46;;;;;;;18.40;7.10;;;;;;;24.54;55.97;98252.11;224031;192;143483;-66
2023/06/30 20:47:50;;;;;;;18.40;7.80;;;;;;;24.51;56.28;98259.79;223937;183;138393;-68
2023/06/30 20:52:55;;;;;;;11.50;6.80;;;;;;;24.48;55.30;98274.34;223720;183;136785;-67
2023/06/30 20:57:59;;;;;;;8.80;5.70;;;;;;;24.44;54.44;98276.08;223715;183;143258;-66
2023/06/30 21:03:02;;;;;;;13.40;5.70;;;;;;;24.38;53.47;98282.89;223763;183;138353;-68
2023/06/30 21:13:15;;;;;;;9.80;5.00;;;;;;;24.30;52.41;98277.41;221932;192;665759;-64
2023/06/30 21:18:18;;;;;;;9.30;3.80;;;;;;;24.19;51.38;98274.48;223304;185;138312;-66
2023/06/30 21:23:22;;;;;;;5.50;3.60;;;;;;;24.10;50.53;98263.84;223331;186;143466;-65
2023/06/30 21:28:25;;;;;;;5.90;2.90;;;;;;;24.03;49.79;98260.98;223690;183;138416;-65
2023/06/30 21:33:28;;;;;;;8.60;3.00;;;;;;;23.99;49.72;98266.65;223523;184;135837;-66
2023/06/30 21:38:31;;;;;;;7.80;3.40;;;;;;;23.93;49.73;98271.55;223535;183;143256;-66
2023/06/30 21:43:35;;;;;;;6.50;2.90;;;;;;;23.87;49.57;98277.92;223570;183;139449;-67
2023/06/30 21:48:38;;;;;;;4.70;3.10;;;;;;;23.82;49.35;98277.88;223651;183;137597;-66
2023/06/30 21:53:41;;;;;;;5.00;3.20;;;;;;;23.79;49.42;98279.62;223631;183;144516;-66
2023/06/30 21:58:44;;;;;;;5.80;3.00;;;;;;;23.76;49.25;98281.02;223553;183;138881;-66
2023/06/30 22:03:48;;;;;;;10.80;3.20;;;;;;;23.69;49.31;98284.96;223639;181;138405;-66
2023/06/30 22:13:14;;;;;;;3.50;2.80;;;;;;;23.65;49.57;98289.27;222048;190;667124;-68
2023/06/30 22:18:17;;;;;;;4.10;2.90;;;;;;;23.60;50.10;98275.80;223594;184;136664;-66
2023/06/30 22:23:20;;;;;;;6.00;2.90;;;;;;;23.56;50.26;98261.94;223623;183;143560;-68
2023/06/30 22:28:23;;;;;;;4.60;2.80;;;;;;;23.53;50.44;98264.73;223555;184;138467;-67
2023/06/30 22:33:27;;;;;;;5.70;2.80;;;;;;;23.49;50.49;98271.45;223553;183;135980;-67
2023/06/30 22:38:31;;;;;;;6.20;3.30;;;;;;;23.44;50.28;98273.63;223767;182;144367;-67
2023/06/30 22:43:34;;;;;;;5.40;2.90;;;;;;;23.36;50.65;98270.64;223705;182;138147;-66
2023/06/30 22:48:37;;;;;;;5.60;2.80;;;;;;;23.30;50.85;98275.44;223672;183;136388;-68
2023/06/30 22:53:41;;;;;;;4.30;2.90;;;;;;;23.25;51.09;98271.08;223667;183;146144;-67
2023/06/30 22:58:44;;;;;;;5.80;3.10;;;;;;;23.20;51.43;98269.52;223770;181;139488;-67
2023/06/30 23:03:47;;;;;;;4.00;2.60;;;;;;;23.16;51.53;98267.08;223849;180;138740;-66
2023/06/30 23:08:50;;;;;;;6.10;2.70;;;;;;;23.12;51.62;98265.61;223706;180;145987;-68
2023/06/30 23:13:55;;;;;;;4.50;2.60;;;;;;;23.06;51.89;98262.59;223704;181;138915;-69
2023/06/30 23:18:58;;;;;;;4.20;2.80;;;;;;;22.99;52.14;98264.29;223750;181;136713;-67
2023/06/30 23:24:09;;;;;;;4.00;2.70;;;;;;;22.91;52.53;98266.27;223731;181;145560;-65
2023/06/30 23:29:12;;;;;;;4.60;3.00;;;;;;;22.87;52.96;98264.16;223604;181;138604;-65
2023/06/30 23:34:16;;;;;;;7.60;2.60;;;;;;;22.81;53.22;98267.23;223661;182;137013;-66
2023/06/30 23:39:19;;;;;;;4.60;2.60;;;;;;;22.75;53.43;98279.98;223602;182;145207;-66
2023/06/30 23:44:22;;;;;;;4.40;2.80;;;;;;;22.70;53.70;98282.77;223599;215;139518;-66
2023/06/30 23:49:26;;;;;;;5.80;2.80;;;;;;;22.64;54.31;98278.78;223583;182;136597;-66
2023/06/30 23:54:29;;;;;;;3.80;2.60;;;;;;;22.60;54.52;98282.27;223699;181;146056;-65
2023/06/30 23:59:32;;;;;;;5.00;2.60;;;;;;;22.57;54.73;98284.11;223683;181;138390;-65
